Time;durP1;ratioP1;P1;durP2;ratioP2;P2;SDS_P1;SDS_P2;PMS_P1;PMS_P2;Temp;Humidity;BMP_temperature;BMP_pressure;BME280_temperature;BME280_humidity;BME280_pressure;Samples;Min_cycle;Max_cycle;Signal;HPM_P1;HPM_P2
2021/08/24 00:01:52;;;;;;;66.65;42.20;;;18.90;69.80;;;;;;5051792;28;20029;-77
2021/08/24 00:04:18;;;;;;;71.00;43.50;;;18.90;69.70;;;;;;5051983;28;20051;-77
2021/08/24 00:06:43;;;;;;;64.60;41.65;;;18.80;69.50;;;;;;5051919;28;20043;-77
2021/08/24 00:09:09;;;;;;;67.03;42.15;;;18.80;69.30;;;;;;5051696;28;20033;-77
2021/08/24 00:11:35;;;;;;;69.55;39.03;;;18.80;69.30;;;;;;5051727;28;20459;-77
2021/08/24 00:14:01;;;;;;;59.42;36.72;;;18.80;69.10;;;;;;5051838;28;20027;-77
2021/08/24 00:16:28;;;;;;;59.22;36.60;;;18.80;68.80;;;;;;5052036;28;20021;-76
2021/08/24 00:18:53;;;;;;;57.70;36.40;;;18.80;68.60;;;;;;5052064;28;20025;-76
2021/08/24 00:21:19;;;;;;;58.42;34.05;;;18.80;68.70;;;;;;5051988;28;20369;-76
2021/08/24 00:23:45;;;;;;;49.78;31.70;;;18.80;68.60;;;;;;5052809;28;20021;-76
2021/08/24 00:26:11;;;;;;;49.35;31.25;;;18.80;68.30;;;;;;5052977;28;20044;-77
2021/08/24 00:28:36;;;;;;;46.97;31.25;;;18.80;68.20;;;;;;5052178;28;20037;-77
2021/08/24 00:31:02;;;;;;;51.95;31.05;;;18.80;68.10;;;;;;5052322;28;20021;-77
2021/08/24 00:33:28;;;;;;;49.42;30.85;;;18.80;68.00;;;;;;5051189;28;20387;-78
2021/08/24 00:35:54;;;;;;;49.47;32.08;;;18.70;67.80;;;;;;5050910;28;20031;-77
2021/08/24 00:38:23;;;;;;;54.17;33.55;;;18.70;67.80;;;;;;5051492;28;20024;-77
2021/08/24 00:40:57;;;;;;;54.08;33.47;;;18.70;67.80;;;;;;5051565;28;20028;-77
2021/08/24 00:43:25;;;;;;;51.35;33.53;;;18.70;67.80;;;;;;5050555;28;20017;-79
2021/08/24 00:45:56;;;;;;;57.40;34.53;;;18.70;67.70;;;;;;5052018;28;20017;-79
2021/08/24 00:48:29;;;;;;;58.63;37.08;;;18.70;67.60;;;;;;5050505;28;20029;-80
2021/08/24 00:50:56;;;;;;;56.45;35.22;;;18.70;68.00;;;;;;5051778;28;20027;-80
2021/08/24 00:53:25;;;;;;;60.33;34.67;;;18.60;67.80;;;;;;5052702;28;20484;-80
2021/08/24 00:55:54;;;;;;;58.13;35.42;;;18.50;67.70;;;;;;5054476;28;20025;-78
2021/08/24 00:58:20;;;;;;;52.97;34.88;;;18.60;67.90;;;;;;5055506;28;20068;-78
2021/08/24 01:00:46;;;;;;;52.78;34.05;;;18.50;68.00;;;;;;5054134;28;20052;-81
2021/08/24 01:03:17;;;;;;;52.22;34.40;;;18.50;68.30;;;;;;5055609;28;20056;-80
2021/08/24 01:05:45;;;;;;;57.95;34.58;;;18.40;68.40;;;;;;5055379;28;20048;-79
2021/08/24 01:08:16;;;;;;;55.53;34.80;;;18.40;68.60;;;;;;5056082;28;20036;-79
2021/08/24 01:10:49;;;;;;;52.65;35.45;;;18.40;68.70;;;;;;5056307;28;20064;-79
2021/08/24 01:13:59;;;;;;;55.72;35.17;;;18.40;68.60;;;;;;5055684;28;20522;-79
2021/08/24 01:16:58;;;;;;;58.25;35.85;;;18.30;68.80;;;;;;5050662;28;20083;-77
2021/08/24 01:19:46;;;;;;;55.03;35.53;;;18.30;69.00;;;;;;5055207;28;20486;-78
2021/08/24 01:22:27;;;;;;;60.20;34.47;;;18.30;69.00;;;;;;5053867;28;20052;-79
2021/08/24 01:24:55;;;;;;;50.80;33.20;;;18.30;69.40;;;;;;5055290;28;20211;-79
2021/08/24 01:27:43;;;;;;;53.58;34.03;;;18.30;69.00;;;;;;5054794;28;20021;-79
2021/08/24 01:30:15;;;;;;;52.67;33.28;;;18.30;69.20;;;;;;5055217;28;20017;-78
2021/08/24 01:32:59;;;;;;;55.97;33.67;;;18.30;69.10;;;;;;5056511;28;20071;-79
2021/08/24 01:35:44;;;;;;;50.60;33.33;;;18.30;69.00;;;;;;5055150;28;20096;-79
2021/08/24 01:38:23;;;;;;;53.83;33.33;;;18.20;68.80;;;;;;5055254;28;20020;-79
2021/08/24 01:41:07;;;;;;;55.38;33.00;;;18.20;68.90;;;;;;5055238;28;20383;-79
2021/08/24 01:44:02;;;;;;;51.42;32.85;;;18.20;69.00;;;;;;5055019;28;20471;-79
2021/08/24 01:46:42;;;;;;;53.47;33.75;;;18.20;69.20;;;;;;5055191;28;20033;-79
2021/08/24 01:49:09;;;;;;;58.15;34.78;;;18.10;69.20;;;;;;5054955;28;20383;-80
2021/08/24 01:51:54;;;;;;;51.70;33.65;;;18.10;69.30;;;;;;5054534;28;20348;-79
2021/08/24 01:54:34;;;;;;;51.25;32.33;;;18.00;69.30;;;;;;5053414;28;20025;-79
2021/08/24 01:57:00;;;;;;;50.42;31.27;;;18.00;69.30;;;;;;5053129;28;20064;-79
2021/08/24 01:59:33;;;;;;;53.47;33.85;;;18.00;69.20;;;;;;5054750;28;20036;-80
2021/08/24 02:02:16;;;;;;;53.20;33.67;;;18.00;69.10;;;;;;5054740;28;20463;-79
2021/08/24 02:04:55;;;;;;;50.10;30.77;;;18.00;69.30;;;;;;5052980;28;20186;-79
2021/08/24 02:07:22;;;;;;;46.10;31.08;;;18.00;69.40;;;;;;5054793;28;20025;-79
2021/08/24 02:09:53;;;;;;;46.50;30.55;;;18.00;69.50;;;;;;5054950;28;20116;-78
2021/08/24 02:12:23;;;;;;;53.78;33.72;;;18.00;69.50;;;;;;5056159;28;20617;-79
2021/08/24 02:14:50;;;;;;;56.92;34.70;;;18.00;69.70;;;;;;5058220;28;20029;-78
2021/08/24 02:17:20;;;;;;;51.55;32.88;;;17.90;69.70;;;;;;5055269;28;20021;-78
2021/08/24 02:19:51;;;;;;;48.47;30.42;;;17.90;69.90;;;;;;5054916;28;20037;-78
2021/08/24 02:22:27;;;;;;;49.92;30.77;;;17.80;70.00;;;;;;5054889;28;20021;-78
2021/08/24 02:25:01;;;;;;;49.92;29.70;;;17.90;70.20;;;;;;5054131;28;20024;-78
2021/08/24 02:27:31;;;;;;;44.83;28.20;;;17.90;70.10;;;;;;5052480;28;20384;-79
2021/08/24 02:29:58;;;;;;;48.03;30.10;;;17.90;70.20;;;;;;5053960;28;20041;-79
2021/08/24 02:32:34;;;;;;;53.58;31.10;;;17.90;70.20;;;;;;5054339;28;20052;-78
2021/08/24 02:35:14;;;;;;;49.55;29.60;;;18.00;70.50;;;;;;5054032;28;20044;-78
2021/08/24 02:38:02;;;;;;;51.70;30.30;;;17.90;70.40;;;;;;5053437;28;20374;-78
2021/08/24 02:41:20;;;;;;;45.60;29.73;;;17.90;70.60;;;;;;5053529;28;20375;-78
2021/08/24 02:44:12;;;;;;;49.60;28.90;;;17.90;70.30;;;;;;5033633;28;20499;-78
2021/08/24 02:46:43;;;;;;;46.60;30.60;;;17.80;70.30;;;;;;5051979;28;20044;-78
2021/08/24 02:49:20;;;;;;;52.20;32.25;;;17.80;70.40;;;;;;5051618;28;20021;-78
2021/08/24 02:51:49;;;;;;;47.42;30.63;;;17.80;70.20;;;;;;5053100;28;20024;-77
2021/08/24 02:54:33;;;;;;;53.90;31.88;;;17.80;70.40;;;;;;5051626;28;20388;-76
2021/08/24 02:57:00;;;;;;;55.42;32.28;;;17.80;70.70;;;;;;5052740;28;20044;-77
2021/08/24 02:59:29;;;;;;;52.03;32.25;;;17.80;70.50;;;;;;5052743;28;20032;-77
2021/08/24 03:01:55;;;;;;;52.45;32.25;;;17.70;70.60;;;;;;5052789;28;20032;-77
2021/08/24 03:04:22;;;;;;;47.85;30.50;;;17.70;70.80;;;;;;5052706;28;20033;-77
2021/08/24 03:06:53;;;;;;;45.63;30.80;;;17.80;70.90;;;;;;5052844;28;20064;-77
2021/08/24 03:09:21;;;;;;;50.15;30.65;;;17.80;71.10;;;;;;5052834;28;20032;-77
2021/08/24 03:11:53;;;;;;;45.00;29.58;;;17.80;71.00;;;;;;5051788;28;20116;-77
2021/08/24 03:14:54;;;;;;;;;;;17.90;71.00;;;;;;5053465;28;20021;-78
2021/08/24 03:17:42;;;;;;;48.80;31.25;;;17.90;70.70;;;;;;5069701;28;19985;-78
2021/08/24 03:20:11;;;;;;;51.10;31.27;;;18.10;70.80;;;;;;5053708;28;20056;-77
2021/08/24 03:22:39;;;;;;;45.40;27.80;;;18.40;70.80;;;;;;5052780;28;20039;-78
2021/08/24 03:25:07;;;;;;;48.15;29.00;;;18.70;70.30;;;;;;5053162;28;20121;-78
2021/08/24 03:27:40;;;;;;;47.42;28.02;;;19.10;69.50;;;;;;5055206;28;20124;-78
2021/08/24 03:30:10;;;;;;;48.45;29.08;;;19.30;68.40;;;;;;5054515;28;20380;-78
2021/08/24 03:32:36;;;;;;;42.20;28.00;;;19.40;67.80;;;;;;5052491;28;20387;-78
2021/08/24 03:35:03;;;;;;;42.38;27.63;;;19.60;67.60;;;;;;5053042;28;20437;-78
2021/08/24 03:37:28;;;;;;;48.47;28.25;;;20.00;67.00;;;;;;5052820;28;20032;-78
2021/08/24 03:39:54;;;;;;;44.30;27.45;;;20.60;66.00;;;;;;5052879;28;20025;-78
2021/08/24 03:42:20;;;;;;;45.17;27.77;;;21.20;64.60;;;;;;5052290;28;20467;-78
2021/08/24 03:44:46;;;;;;;42.50;26.48;;;21.90;63.20;;;;;;5052235;28;20025;-78
2021/08/24 03:47:13;;;;;;;38.40;25.20;;;22.60;61.90;;;;;;5052089;28;20150;-78
2021/08/24 03:49:39;;;;;;;36.58;23.92;;;23.40;60.20;;;;;;5052107;28;20025;-78
2021/08/24 03:52:06;;;;;;;35.65;23.50;;;24.10;58.30;;;;;;5052102;28;20029;-78
2021/08/24 03:54:32;;;;;;;40.88;24.63;;;24.80;56.50;;;;;;5052105;28;20379;-78
2021/08/24 03:56:58;;;;;;;37.88;22.50;;;25.40;55.10;;;;;;5052296;28;20033;-78
2021/08/24 03:59:24;;;;;;;39.17;24.75;;;26.10;53.80;;;;;;5052357;28;20033;-78
2021/08/24 04:01:49;;;;;;;31.65;21.55;;;26.80;52.60;;;;;;5052179;28;20071;-77
2021/08/24 04:04:15;;;;;;;29.92;20.58;;;27.40;51.40;;;;;;5052214;28;20025;-78
2021/08/24 04:06:41;;;;;;;32.85;19.95;;;27.90;50.10;;;;;;5052103;28;20024;-78
2021/08/24 04:09:07;;;;;;;43.22;21.38;;;28.50;49.00;;;;;;5051248;28;20368;-81
2021/08/24 04:11:33;;;;;;;32.33;21.23;;;29.00;47.90;;;;;;5052217;28;20053;-79
2021/08/24 04:13:58;;;;;;;35.58;21.20;;;29.40;47.00;;;;;;5052303;28;20033;-80
2021/08/24 04:16:24;;;;;;;29.45;19.77;;;29.70;46.40;;;;;;5051892;28;20445;-80
2021/08/24 04:18:50;;;;;;;33.05;20.73;;;30.10;45.90;;;;;;5052138;28;20017;-79
2021/08/24 04:21:17;;;;;;;30.92;20.17;;;30.50;45.30;;;;;;5051709;28;20379;-80
2021/08/24 04:23:45;;;;;;;31.75;20.33;;;30.70;44.40;;;;;;5050825;28;20024;-80
2021/08/24 04:26:12;;;;;;;30.63;18.77;;;30.90;43.90;;;;;;5052164;28;20017;-80
2021/08/24 04:28:38;;;;;;;32.05;18.55;;;31.00;43.50;;;;;;5053217;28;20047;-79
2021/08/24 04:31:04;;;;;;;27.63;17.83;;;31.30;43.20;;;;;;5054406;28;20093;-79
2021/08/24 04:33:31;;;;;;;27.60;18.02;;;31.50;42.80;;;;;;5055705;28;20021;-80
2021/08/24 04:35:57;;;;;;;25.40;17.70;;;31.90;42.20;;;;;;5055690;28;20021;-79
2021/08/24 04:38:23;;;;;;;29.27;18.48;;;32.40;41.70;;;;;;5055623;28;20532;-79
2021/08/24 04:40:49;;;;;;;27.00;16.60;;;32.90;41.10;;;;;;5055558;28;20033;-80
2021/08/24 04:43:16;;;;;;;34.67;17.20;;;33.40;41.20;;;;;;5055951;28;20064;-80
2021/08/24 04:45:42;;;;;;;25.67;16.38;;;33.60;40.00;;;;;;5055497;28;20033;-78
2021/08/24 04:48:07;;;;;;;24.02;17.92;;;33.80;39.60;;;;;;5056299;28;20085;-79
2021/08/24 04:50:34;;;;;;;28.42;16.58;;;33.90;39.40;;;;;;5054303;28;20055;-79
2021/08/24 04:52:59;;;;;;;23.00;16.70;;;34.20;39.20;;;;;;5056137;28;20053;-80
2021/08/24 04:55:25;;;;;;;23.95;15.88;;;34.60;39.00;;;;;;5055429;28;20110;-78
2021/08/24 04:57:51;;;;;;;20.48;15.43;;;34.90;38.50;;;;;;5055667;28;20060;-79
2021/08/24 05:00:17;;;;;;;29.55;17.95;;;35.30;38.10;;;;;;5055402;28;20032;-79
2021/08/24 05:02:43;;;;;;;25.88;17.15;;;35.70;37.90;;;;;;5055099;28;20036;-80
2021/08/24 05:05:09;;;;;;;26.85;16.85;;;36.20;37.70;;;;;;5055570;28;20463;-79
2021/08/24 05:07:35;;;;;;;26.10;16.40;;;36.70;37.40;;;;;;5053858;28;20060;-78
2021/08/24 05:10:03;;;;;;;23.45;16.42;;;37.20;36.80;;;;;;5053778;28;20094;-79
2021/08/24 05:12:29;;;;;;;25.67;16.83;;;37.60;36.40;;;;;;5054677;28;20029;-79
2021/08/24 05:14:55;;;;;;;25.52;16.83;;;37.90;36.10;;;;;;5054962;28;20025;-79
2021/08/24 05:17:21;;;;;;;24.23;15.82;;;38.30;35.90;;;;;;5054947;28;20021;-80
2021/08/24 05:19:47;;;;;;;26.33;16.90;;;38.70;35.50;;;;;;5054883;28;20095;-79
2021/08/24 05:22:12;;;;;;;21.92;16.95;;;39.00;35.30;;;;;;5054752;28;20072;-79
2021/08/24 05:24:38;;;;;;;24.65;17.83;;;39.40;35.20;;;;;;5054722;28;20297;-80
2021/08/24 05:27:05;;;;;;;23.40;15.52;;;39.80;35.00;;;;;;5054619;28;20452;-80
2021/08/24 05:29:31;;;;;;;26.48;16.88;;;40.10;34.80;;;;;;5054621;28;20032;-79
2021/08/24 05:31:57;;;;;;;21.42;15.77;;;40.30;34.30;;;;;;5054660;28;20078;-80
2021/08/24 05:34:23;;;;;;;21.40;15.18;;;40.40;34.20;;;;;;5054470;28;20475;-79
2021/08/24 05:36:48;;;;;;;19.60;13.93;;;40.60;33.70;;;;;;5054384;28;20476;-78
2021/08/24 05:39:14;;;;;;;20.63;13.15;;;40.60;33.50;;;;;;5053983;28;20108;-78
2021/08/24 05:41:40;;;;;;;22.42;14.20;;;40.70;33.50;;;;;;5053466;28;20021;-77
2021/08/24 05:44:07;;;;;;;20.15;14.65;;;40.90;33.40;;;;;;5054277;28;20074;-77
2021/08/24 05:46:33;;;;;;;16.13;12.40;;;41.10;33.30;;;;;;5053985;28;20096;-77
2021/08/24 05:48:59;;;;;;;20.73;13.48;;;41.30;33.00;;;;;;5053970;28;20108;-77
2021/08/24 05:51:25;;;;;;;17.10;12.43;;;41.50;32.80;;;;;;5054329;28;20063;-77
2021/08/24 05:53:52;;;;;;;18.95;12.70;;;41.80;32.60;;;;;;5054431;28;20028;-78
2021/08/24 05:56:21;;;;;;;23.70;12.60;;;42.10;32.50;;;;;;5053914;28;20064;-78
2021/08/24 05:58:47;;;;;;;20.75;11.88;;;42.40;32.20;;;;;;5052593;28;20048;-77
2021/08/24 06:01:22;;;;;;;16.67;10.63;;;42.60;32.00;;;;;;5054223;28;20048;-77
2021/08/24 06:03:48;;;;;;;13.32;9.93;;;42.70;31.60;;;;;;5054369;28;20067;-78
2021/08/24 06:06:32;;;;;;;12.73;8.02;;;42.90;31.40;;;;;;5055350;28;20060;-78
2021/08/24 06:08:58;;;;;;;9.43;7.70;;;43.10;31.10;;;;;;5053968;28;20487;-78
2021/08/24 06:11:29;;;;;;;12.30;9.15;;;43.20;31.20;;;;;;5054063;28;20096;-78
2021/08/24 06:13:56;;;;;;;9.48;7.65;;;43.10;30.90;;;;;;5053835;28;20460;-77
2021/08/24 06:16:22;;;;;;;11.95;7.60;;;43.00;30.90;;;;;;5053404;28;20043;-77
2021/08/24 06:18:48;;;;;;;13.57;7.43;;;43.00;30.80;;;;;;5053738;28;20052;-78
2021/08/24 06:21:15;;;;;;;12.10;7.20;;;43.20;30.90;;;;;;5053258;28;20471;-78
2021/08/24 06:23:41;;;;;;;8.77;6.93;;;43.30;30.40;;;;;;5052946;28;20383;-77
2021/08/24 06:26:08;;;;;;;11.38;7.32;;;43.40;30.40;;;;;;5053179;28;20025;-77
2021/08/24 06:28:33;;;;;;;11.43;6.90;;;43.50;30.10;;;;;;5053348;28;20032;-77
2021/08/24 06:31:00;;;;;;;10.40;7.25;;;43.70;30.20;;;;;;5052880;28;20383;-78
2021/08/24 06:33:37;;;;;;;8.73;7.43;;;43.60;30.00;;;;;;5053573;28;20021;-78
2021/08/24 06:36:03;;;;;;;10.18;7.00;;;43.60;30.00;;;;;;5053271;28;20083;-77
2021/08/24 06:38:31;;;;;;;10.38;7.40;;;43.70;30.10;;;;;;5052984;28;20025;-78
2021/08/24 06:40:57;;;;;;;15.75;7.07;;;43.80;30.10;;;;;;5052107;28;20037;-78
2021/08/24 06:43:23;;;;;;;13.10;7.72;;;43.90;30.00;;;;;;5052974;28;20036;-78
2021/08/24 06:45:49;;;;;;;7.78;6.47;;;44.00;30.00;;;;;;5053074;28;20017;-78
2021/08/24 06:48:15;;;;;;;13.40;7.45;;;44.00;30.00;;;;;;5052892;28;20036;-77
2021/08/24 06:50:41;;;;;;;7.85;6.38;;;44.00;29.90;;;;;;5052764;28;20025;-78
2021/08/24 06:53:09;;;;;;;8.48;5.75;;;44.10;29.90;;;;;;5052757;28;20024;-77
2021/08/24 06:55:36;;;;;;;7.50;5.28;;;44.10;30.30;;;;;;5052955;28;20032;-80
2021/08/24 06:58:01;;;;;;;5.72;5.13;;;44.00;29.50;;;;;;5052828;28;20052;-78
2021/08/24 07:00:30;;;;;;;10.50;6.03;;;43.80;29.50;;;;;;5052946;28;20029;-79
2021/08/24 07:02:56;;;;;;;7.90;4.85;;;43.70;29.70;;;;;;5054038;28;20025;-78
2021/08/24 07:05:28;;;;;;;9.57;5.28;;;43.60;29.70;;;;;;5052534;28;20039;-78
2021/08/24 07:07:54;;;;;;;10.82;5.78;;;43.50;29.60;;;;;;5052540;28;20475;-78
2021/08/24 07:10:21;;;;;;;8.85;5.68;;;43.30;29.70;;;;;;5052600;28;20100;-78
2021/08/24 07:12:47;;;;;;;9.27;5.07;;;43.20;29.70;;;;;;5052917;28;20021;-78
2021/08/24 07:15:16;;;;;;;6.13;4.85;;;42.90;29.70;;;;;;5053255;28;20468;-77
2021/08/24 07:17:42;;;;;;;12.15;8.93;;;42.60;29.80;;;;;;5051811;28;20532;-77
2021/08/24 07:20:12;;;;;;;5.97;4.80;;;42.30;29.90;;;;;;5052763;28;20029;-78
2021/08/24 07:22:38;;;;;;;7.30;5.00;;;42.20;29.80;;;;;;5052988;28;20029;-78
2021/08/24 07:25:08;;;;;;;11.98;4.85;;;42.00;29.90;;;;;;5053056;28;20380;-77
2021/08/24 07:27:33;;;;;;;6.35;4.40;;;41.90;30.00;;;;;;5053231;28;20029;-78
2021/08/24 07:29:59;;;;;;;6.65;4.70;;;41.30;30.10;;;;;;5053387;28;20033;-81
2021/08/24 07:32:25;;;;;;;6.65;4.38;;;41.10;30.50;;;;;;5053299;28;20024;-82
2021/08/24 07:34:51;;;;;;;8.30;4.40;;;40.80;30.50;;;;;;5051997;28;20021;-77
2021/08/24 07:37:17;;;;;;;5.88;4.53;;;40.60;31.40;;;;;;5052500;28;20025;-79
2021/08/24 07:39:43;;;;;;;8.13;4.55;;;40.50;30.90;;;;;;5052088;28;20036;-78
2021/08/24 07:42:09;;;;;;;7.13;4.35;;;40.50;31.10;;;;;;5051987;28;20032;-78
2021/08/24 07:44:36;;;;;;;7.00;4.70;;;40.40;30.80;;;;;;5051989;28;20454;-80
2021/08/24 07:47:06;;;;;;;13.98;8.13;;;40.20;30.90;;;;;;5050887;28;20029;-79
2021/08/24 07:49:35;;;;;;;5.03;4.45;;;40.10;31.10;;;;;;5051739;28;20021;-80
2021/08/24 07:52:03;;;;;;;8.38;4.95;;;39.80;31.10;;;;;;5052084;28;20033;-78
2021/08/24 07:54:29;;;;;;;6.10;3.92;;;39.50;31.40;;;;;;5051866;28;20025;-80
2021/08/24 07:56:54;;;;;;;5.32;4.25;;;39.30;31.20;;;;;;5051507;28;20398;-79
2021/08/24 07:59:23;;;;;;;5.85;4.00;;;39.00;31.20;;;;;;5051506;28;20048;-78
2021/08/24 08:01:51;;;;;;;6.63;4.32;;;38.70;31.10;;;;;;5051971;28;20068;-77
2021/08/24 08:04:19;;;;;;;5.80;4.35;;;38.50;31.60;;;;;;5051306;28;20040;-77
2021/08/24 08:06:45;;;;;;;5.63;4.00;;;38.40;31.60;;;;;;5051681;28;20502;-78
2021/08/24 08:09:11;;;;;;;9.65;4.70;;;38.30;32.00;;;;;;5051675;28;20032;-79
2021/08/24 08:11:38;;;;;;;16.65;8.85;;;38.20;32.10;;;;;;5051678;28;20040;-78
2021/08/24 08:14:07;;;;;;;22.30;11.98;;;38.10;32.10;;;;;;5051622;28;20045;-78
2021/08/24 08:16:38;;;;;;;8.43;5.53;;;37.90;32.20;;;;;;5051815;28;20095;-76
2021/08/24 08:19:04;;;;;;;7.18;4.20;;;37.50;32.20;;;;;;5051555;28;20028;-77
2021/08/24 08:21:32;;;;;;;12.07;5.75;;;37.40;32.60;;;;;;5051520;28;20375;-79
2021/08/24 08:23:58;;;;;;;10.32;5.97;;;37.30;32.50;;;;;;5051552;28;20044;-78
2021/08/24 08:26:24;;;;;;;37.38;17.63;;;37.20;32.20;;;;;;5051524;28;20028;-78
2021/08/24 08:28:50;;;;;;;32.05;15.73;;;37.10;31.90;;;;;;5051578;28;20029;-77
2021/08/24 08:31:17;;;;;;;27.90;14.23;;;36.70;31.90;;;;;;5051661;28;20044;-78
2021/08/24 08:33:43;;;;;;;21.10;10.93;;;36.30;31.90;;;;;;5051621;28;20090;-79
2021/08/24 08:36:12;;;;;;;19.77;9.80;;;35.70;32.40;;;;;;5051748;28;20037;-78
2021/08/24 08:38:38;;;;;;;26.23;12.27;;;35.50;32.90;;;;;;5051533;28;20025;-79
2021/08/24 08:41:20;;;;;;;22.27;11.48;;;35.30;32.70;;;;;;5051418;28;20021;-79
2021/08/24 08:44:03;;;;;;;19.35;7.68;;;35.10;32.70;;;;;;5051761;28;20081;-79
2021/08/24 08:46:52;;;;;;;6.97;4.20;;;34.80;32.90;;;;;;5051959;28;20025;-78
2021/08/24 08:49:53;;;;;;;13.25;4.75;;;34.80;33.10;;;;;;5051487;28;20541;-78
2021/08/24 08:52:39;;;;;;;12.73;6.43;;;34.80;33.30;;;;;;5052331;28;20029;-77
2021/08/24 08:55:30;;;;;;;6.38;3.50;;;34.90;33.20;;;;;;5052358;28;20029;-79
2021/08/24 08:58:20;;;;;;;23.98;11.45;;;34.90;32.90;;;;;;5052579;28;20053;-79
2021/08/24 09:00:47;;;;;;;19.35;9.15;;;34.90;32.50;;;;;;5051794;28;20027;-80
2021/08/24 09:03:17;;;;;;;5.18;3.72;;;34.70;32.70;;;;;;5051323;28;20025;-79
2021/08/24 09:05:46;;;;;;;11.32;3.83;;;34.60;32.70;;;;;;5051054;28;20049;-78
2021/08/24 09:08:14;;;;;;;3.90;3.50;;;34.60;32.90;;;;;;5051100;28;20056;-78
2021/08/24 09:10:47;;;;;;;5.18;3.70;;;34.50;33.00;;;;;;5050794;28;20021;-78
2021/08/24 09:13:29;;;;;;;4.18;3.30;;;34.30;33.10;;;;;;5049504;28;20042;-78
2021/08/24 09:16:16;;;;;;;5.53;3.70;;;34.20;33.50;;;;;;5054248;28;20106;-79
2021/08/24 09:18:48;;;;;;;5.90;3.35;;;34.10;33.50;;;;;;5054397;28;20029;-78
2021/08/24 09:21:21;;;;;;;8.30;3.75;;;34.10;33.60;;;;;;5054461;28;20051;-80
2021/08/24 09:23:47;;;;;;;10.00;5.30;;;33.90;33.80;;;;;;5054573;28;20078;-77
2021/08/24 09:26:47;;;;;;;13.88;5.90;;;33.90;33.90;;;;;;5054603;28;20111;-80
2021/08/24 09:29:15;;;;;;;4.82;4.00;;;33.90;34.00;;;;;;5054250;28;20479;-79
2021/08/24 09:31:43;;;;;;;5.57;4.28;;;33.70;35.00;;;;;;5054378;28;20052;-80
2021/08/24 09:34:12;;;;;;;4.25;3.80;;;33.30;36.00;;;;;;5054269;28;20096;-81
2021/08/24 09:36:38;;;;;;;5.35;3.90;;;33.10;36.20;;;;;;5054485;28;20471;-79
2021/08/24 09:39:04;;;;;;;5.32;3.85;;;32.90;36.20;;;;;;5054054;28;20040;-78
2021/08/24 09:41:34;;;;;;;9.40;4.45;;;32.60;36.40;;;;;;5054232;28;20029;-80
2021/08/24 09:45:00;;;;;;;6.50;4.00;;;32.40;37.30;;;;;;5054154;28;20017;-82
2021/08/24 09:47:26;;;;;;;4.95;4.30;;;32.10;38.40;;;;;;5035184;28;20021;-88
2021/08/24 09:50:09;;;;;;;4.72;4.05;;;32.00;38.90;;;;;;5018149;28;20120;-88
2021/08/24 09:52:38;;;;;;;7.05;4.07;;;31.70;38.50;;;;;;5049506;28;20051;-84
2021/08/24 09:55:11;;;;;;;6.47;4.72;;;31.50;38.80;;;;;;5057282;28;20029;-86
2021/08/24 09:57:59;;;;;;;5.47;3.63;;;31.20;39.80;;;;;;5054896;28;20147;-85
2021/08/24 10:00:56;;;;;;;4.57;3.80;;;30.90;40.30;;;;;;5056822;28;20072;-87
2021/08/24 10:03:38;;;;;;;8.00;4.22;;;30.60;40.30;;;;;;5055852;28;20021;-86
2021/08/24 10:06:29;;;;;;;6.90;3.80;;;30.40;40.80;;;;;;5059659;28;20052;-88
2021/08/24 10:09:11;;;;;;;5.45;3.75;;;30.40;40.90;;;;;;5051631;28;20396;-88
2021/08/24 10:11:37;;;;;;;7.78;4.25;;;30.10;40.60;;;;;;5062855;28;20017;-85
2021/08/24 10:14:12;;;;;;;5.80;4.25;;;29.90;40.60;;;;;;5065524;28;20059;-87
2021/08/24 10:16:43;;;;;;;5.72;4.22;;;29.70;41.00;;;;;;5062294;28;20048;-86
2021/08/24 10:19:20;;;;;;;6.55;4.35;;;29.40;41.70;;;;;;5054649;28;20096;-80
2021/08/24 10:21:54;;;;;;;5.03;4.53;;;29.20;42.00;;;;;;5054884;28;20048;-85
2021/08/24 10:24:53;;;;;;;5.05;3.72;;;29.00;42.40;;;;;;5056257;28;20021;-82
2021/08/24 10:27:56;;;;;;;4.00;3.55;;;28.70;42.40;;;;;;5280825;22;20119;-83
2021/08/24 10:31:01;;;;;;;4.18;3.70;;;28.60;42.50;;;;;;5035710;28;20522;-84
2021/08/24 10:36:24;;;;;;;9.02;3.90;;;28.50;41.80;;;;;;5636478;22;20054;-79
2021/08/24 10:41:49;;;;;;;5.35;3.53;;;28.30;41.50;;;;;;5092782;22;20058;-79
2021/08/24 10:44:27;;;;;;;6.83;3.63;;;28.20;41.60;;;;;;4995699;28;20398;-80
2021/08/24 10:47:01;;;;;;;15.88;3.67;;;28.20;41.80;;;;;;4995944;28;20030;-74
2021/08/24 10:49:27;;;;;;;7.30;3.75;;;28.20;42.10;;;;;;5013275;28;20025;-77
2021/08/24 10:52:20;;;;;;;4.90;3.38;;;28.20;41.80;;;;;;5013017;28;20022;-75
2021/08/24 10:55:10;;;;;;;4.70;3.53;;;28.20;41.60;;;;;;5013306;28;20056;-75
2021/08/24 10:57:54;;;;;;;5.97;3.65;;;28.20;41.90;;;;;;5013046;28;20029;-76
2021/08/24 11:00:22;;;;;;;5.82;3.78;;;28.20;41.70;;;;;;5012727;28;20080;-75
2021/08/24 11:03:11;;;;;;;4.30;3.47;;;28.10;41.60;;;;;;5012882;28;20025;-75
2021/08/24 11:05:49;;;;;;;7.18;3.40;;;28.00;40.80;;;;;;5013071;28;20026;-78
2021/08/24 11:08:58;;;;;;;7.03;3.03;;;27.90;41.00;;;;;;5013088;28;20045;-77
2021/08/24 11:11:33;;;;;;;4.97;3.00;;;27.90;41.20;;;;;;5012823;28;20057;-78
2021/08/24 11:14:10;;;;;;;7.70;3.50;;;27.90;41.20;;;;;;4995246;28;20088;-79
2021/08/24 11:16:42;;;;;;;4.97;3.28;;;27.90;40.90;;;;;;5012711;28;20084;-75
2021/08/24 11:19:23;;;;;;;3.97;3.40;;;27.90;40.60;;;;;;5012596;28;20029;-75
2021/08/24 11:21:59;;;;;;;9.48;3.55;;;27.70;40.40;;;;;;4995105;28;20037;-76
2021/08/24 11:24:41;;;;;;;8.25;3.78;;;27.70;40.50;;;;;;4995025;28;20026;-75
2021/08/24 11:27:13;;;;;;;3.60;3.30;;;27.60;40.70;;;;;;4994856;28;20021;-76
2021/08/24 11:29:41;;;;;;;5.15;3.53;;;27.50;40.60;;;;;;5012297;28;20076;-75
2021/08/24 11:32:32;;;;;;;3.88;3.25;;;27.50;40.80;;;;;;4994840;28;20038;-74
2021/08/24 11:35:08;;;;;;;9.13;3.58;;;27.60;41.20;;;;;;5003510;28;20110;-74
2021/08/24 11:37:50;;;;;;;5.45;3.00;;;27.60;41.10;;;;;;4992118;28;20019;-75
2021/08/24 11:40:25;;;;;;;3.53;3.22;;;27.50;40.90;;;;;;4992884;28;20038;-75
2021/08/24 11:43:00;;;;;;;5.03;3.83;;;27.50;40.90;;;;;;4992734;28;20034;-76
2021/08/24 11:45:41;;;;;;;4.45;3.40;;;27.40;41.10;;;;;;4992698;28;20050;-77
2021/08/24 11:48:14;;;;;;;5.03;3.15;;;27.40;41.20;;;;;;4992676;28;20105;-76
2021/08/24 11:51:09;;;;;;;3.78;3.30;;;27.40;41.30;;;;;;4992659;28;20022;-77
2021/08/24 11:53:43;;;;;;;6.50;3.10;;;27.30;41.40;;;;;;4979416;28;20036;-76
2021/08/24 11:56:19;;;;;;;3.53;3.10;;;27.40;41.40;;;;;;4992422;28;20141;-75
2021/08/24 11:58:47;;;;;;;5.25;3.40;;;27.40;41.30;;;;;;4992676;28;20022;-76
2021/08/24 12:01:24;;;;;;;5.65;3.45;;;27.40;41.20;;;;;;4992378;28;20365;-75
2021/08/24 12:03:54;;;;;;;4.05;3.13;;;27.40;41.30;;;;;;4992693;28;20027;-76
2021/08/24 12:06:43;;;;;;;4.75;3.40;;;27.30;41.40;;;;;;4992309;28;20248;-77
2021/08/24 12:09:17;;;;;;;7.38;3.33;;;27.30;41.40;;;;;;4992524;28;20031;-74
2021/08/24 12:11:48;;;;;;;7.05;3.20;;;27.30;41.20;;;;;;4993613;28;20023;-78
2021/08/24 12:14:25;;;;;;;4.28;3.33;;;27.30;41.50;;;;;;4992304;28;20018;-76
2021/08/24 12:17:07;;;;;;;6.00;3.33;;;27.30;41.00;;;;;;4991141;28;20032;-75
2021/08/24 12:19:35;;;;;;;4.25;3.08;;;27.30;40.90;;;;;;4974645;28;20384;-76
2021/08/24 12:22:36;;;;;;;4.72;3.35;;;27.30;40.40;;;;;;4992158;28;20031;-77
2021/08/24 12:25:13;;;;;;;4.93;3.40;;;27.20;40.30;;;;;;4992051;28;20105;-78
2021/08/24 12:27:53;;;;;;;6.25;3.40;;;27.20;40.50;;;;;;4992222;28;20030;-79
2021/08/24 12:30:41;;;;;;;5.35;3.40;;;27.20;40.10;;;;;;4992180;28;20026;-80
2021/08/24 12:33:12;;;;;;;4.78;3.35;;;27.20;40.70;;;;;;4962087;28;20037;-80
2021/08/24 12:35:42;;;;;;;3.85;3.22;;;27.10;41.00;;;;;;4992623;28;20034;-82
2021/08/24 12:38:29;;;;;;;4.15;3.30;;;27.00;40.70;;;;;;5008815;28;20029;-83
2021/08/24 12:40:55;;;;;;;3.75;3.22;;;27.10;41.00;;;;;;5011367;28;20052;-79
2021/08/24 12:43:39;;;;;;;3.70;3.10;;;27.00;40.80;;;;;;5011837;28;20068;-80
2021/08/24 12:46:19;;;;;;;5.88;3.70;;;27.00;41.20;;;;;;5012012;28;20535;-79
2021/08/24 12:49:29;;;;;;;3.72;3.28;;;27.00;41.20;;;;;;5011742;28;20156;-80
2021/08/24 12:52:18;;;;;;;4.00;3.28;;;27.00;41.20;;;;;;5008876;28;20537;-80
2021/08/24 12:54:51;;;;;;;5.15;3.85;;;27.00;41.50;;;;;;5007726;28;20092;-81
2021/08/24 12:57:33;;;;;;;4.20;3.03;;;27.00;41.30;;;;;;5015517;28;20096;-79
2021/08/24 13:00:26;;;;;;;4.25;3.60;;;26.90;41.50;;;;;;5015360;28;20515;-78
2021/08/24 13:03:24;;;;;;;4.95;3.58;;;27.00;41.80;;;;;;5015221;28;20050;-79
2021/08/24 13:06:15;;;;;;;4.45;3.38;;;27.00;42.30;;;;;;5015251;28;20022;-78
2021/08/24 13:08:41;;;;;;;3.67;3.35;;;27.00;42.20;;;;;;4997572;28;20132;-79
2021/08/24 13:11:34;;;;;;;4.25;3.38;;;27.00;42.50;;;;;;5015388;28;20037;-80